Time;durP1;ratioP1;P1;durP2;ratioP2;P2;SDS_P1;SDS_P2;PMS_P1;PMS_P2;Temp;Humidity;BMP_temperature;BMP_pressure;BME280_temperature;BME280_humidity;BME280_pressure;Samples;Min_cycle;Max_cycle;Signal;HPM_P1;HPM_P2
2023/12/07 00:01:57;;;;;;;;;61.00;47.00;;;;;1.61;100.00;99292.34;6284142;20;2863830;-56
2023/12/07 00:04:27;;;;;;;;;62.33;44.67;;;;;1.67;100.00;99286.84;6281299;20;2870151;-54
2023/12/07 00:06:57;;;;;;;;;60.67;46.33;;;;;1.51;100.00;99289.97;6314147;20;2865963;-54
2023/12/07 00:09:26;;;;;;;;;55.50;47.00;;;;;1.71;100.00;99286.72;6313115;20;2858644;-54
2023/12/07 00:11:56;;;;;;;;;56.33;45.00;;;;;1.53;100.00;99287.28;6283353;20;2871191;-56
2023/12/07 00:14:25;;;;;;;;;50.50;44.00;;;;;1.56;100.00;99296.91;6314731;20;2829546;-53
2023/12/07 00:16:53;;;;;;;;;64.00;53.00;;;;;1.75;100.00;99298.06;6279865;20;2498318;-54
2023/12/07 00:19:21;;;;;;;;;66.50;52.00;;;;;1.83;100.00;99296.03;6276664;20;2500885;-55
2023/12/07 00:21:50;;;;;;;;;66.50;52.00;;;;;1.71;100.00;99289.34;6283290;20;2862873;-54
2023/12/07 00:24:20;;;;;;;;;71.67;54.00;;;;;1.74;100.00;99293.69;6277818;20;2881623;-54
2023/12/07 00:26:50;;;;;;;;;72.33;56.67;;;;;1.93;100.00;99292.16;6312943;20;2880649;-54
2023/12/07 00:29:19;;;;;;;;;70.00;53.67;;;;;1.67;100.00;99285.06;6309818;20;2876360;-54
2023/12/07 00:31:49;;;;;;;;;79.00;57.33;;;;;1.74;100.00;99291.03;6313266;20;3640972;-55
2023/12/07 00:34:19;;;;;;;;;74.67;57.33;;;;;1.64;100.00;99293.09;6311758;20;2878430;-55
2023/12/07 00:36:49;;;;;;;;;75.00;54.00;;;;;1.76;100.00;99297.13;6314063;20;3640867;-54
2023/12/07 00:39:18;;;;;;;;;69.00;48.67;;;;;1.74;100.00;99296.34;6313467;20;2881579;-54
2023/12/07 00:41:48;;;;;;;;;60.00;48.33;;;;;1.93;100.00;99304.53;6313760;20;2867980;-53
2023/12/07 00:44:18;;;;;;;;;52.00;43.00;;;;;1.83;100.00;99301.31;6313452;20;2869169;-54
2023/12/07 00:46:47;;;;;;;;;48.50;42.50;;;;;1.84;100.00;99304.81;6314076;20;2851363;-55
2023/12/07 00:49:16;;;;;;;;;63.50;45.50;;;;;1.76;100.00;99299.78;6280207;20;2880598;-56
2023/12/07 00:51:46;;;;;;;;;68.67;49.00;;;;;1.69;100.00;99303.56;6281446;20;2880561;-55
2023/12/07 00:54:15;;;;;;;;;58.67;42.00;;;;;1.53;100.00;99304.03;6313077;20;2875310;-54
2023/12/07 00:56:45;;;;;;;;;65.00;48.67;;;;;1.66;100.00;99300.97;6311328;20;2885817;-55
2023/12/07 00:59:15;;;;;;;;;61.00;44.00;;;;;1.53;100.00;99309.31;6312050;20;3639967;-55
2023/12/07 01:01:44;;;;;;;;;54.50;44.00;;;;;1.68;100.00;99307.09;6312948;20;2845144;-55
2023/12/07 01:04:12;;;;;;;;;59.50;47.50;;;;;1.60;100.00;99303.81;6282489;20;2864907;-55
2023/12/07 01:06:42;;;;;;;;;60.50;46.50;;;;;1.54;100.00;99308.38;6282208;20;2866973;-56
2023/12/07 01:09:13;;;;;;;;;67.00;53.00;;;;;1.04;100.00;99310.78;6280848;20;2871140;-56
2023/12/07 01:11:42;;;;;;;;;61.00;46.50;;;;;0.92;100.00;99310.25;6278061;20;2869033;-57
2023/12/07 01:14:12;;;;;;;;;61.33;46.00;;;;;1.39;100.00;99305.34;6278142;20;2869106;-57
2023/12/07 01:16:41;;;;;;;;;56.00;46.50;;;;;1.14;100.00;99300.81;6312175;20;2854493;-55
2023/12/07 01:19:13;;;;;;;;;64.50;51.50;;;;;0.99;100.00;99302.09;6281745;20;2856660;-57
2023/12/07 01:21:43;;;;;;;;;47.50;41.00;;;;;1.21;100.00;99293.53;6281313;20;2846129;-57
2023/12/07 01:24:12;;;;;;;;;62.67;40.67;;;;;0.91;100.00;99293.53;6282287;20;3636745;-57
2023/12/07 01:26:45;;;;;;;;;45.00;39.33;;;;;1.07;100.00;99301.88;6308105;20;2867238;-58
2023/12/07 01:29:14;;;;;;;;;43.00;33.50;;;;;1.01;100.00;99308.22;6311145;20;2867059;-57
2023/12/07 01:31:43;;;;;;;;;43.50;38.00;;;;;0.78;100.00;99302.72;6280310;20;2857633;-57
2023/12/07 01:34:12;;;;;;;;;36.00;31.00;;;;;1.04;100.00;99308.13;6281029;20;2851472;-58
2023/12/07 01:36:41;;;;;;;;;44.00;37.00;;;;;0.97;100.00;99309.22;6278294;20;2856639;-57
2023/12/07 01:39:12;;;;;;;;;38.00;35.00;;;;;0.89;100.00;99305.91;6280869;20;2865535;-58
2023/12/07 01:41:40;;;;;;;;;36.00;29.50;;;;;0.89;100.00;99305.91;6276164;20;2500387;-58
2023/12/07 01:44:09;;;;;;;;;36.00;26.67;;;;;0.82;100.00;99302.59;6279192;20;3602317;-58
2023/12/07 01:46:38;;;;;;;;;32.50;29.00;;;;;0.99;100.00;99306.53;6278756;20;2852325;-57
2023/12/07 01:49:09;;;;;;;;;72.67;55.33;;;;;1.06;100.00;99301.03;6278626;20;2883723;-58
2023/12/07 01:51:39;;;;;;;;;47.67;34.33;;;;;0.93;100.00;99304.94;6307331;20;2870247;-57
2023/12/07 01:54:08;;;;;;;;;21.33;19.67;;;;;0.78;100.00;99300.06;6308308;20;3564945;-58
2023/12/07 01:56:37;;;;;;;;;34.00;29.50;;;;;0.87;100.00;99294.56;6310850;20;2854447;-57
2023/12/07 01:59:05;;;;;;;;;36.00;28.00;;;;;0.85;100.00;99299.00;6276885;20;2500283;-57
2023/12/07 02:01:35;;;;;;;;;36.00;26.50;;;;;0.88;100.00;99302.41;6277933;20;2860678;-58
2023/12/07 02:04:04;;;;;;;;;26.33;21.67;;;;;0.95;100.00;99305.75;6276708;20;3566976;-57
2023/12/07 02:06:34;;;;;;;;;19.20;11.00;;;;;1.01;100.00;99299.44;6332344;20;2821109;-57
2023/12/07 02:09:03;;;;;;;;;33.67;27.00;;;;;1.35;100.00;99298.44;6278074;20;3589860;-57
2023/12/07 02:11:31;;;;;;;;;33.50;29.50;;;;;0.75;100.00;99294.88;6279787;20;2856671;-57
2023/12/07 02:14:00;;;;;;;;;27.00;23.33;;;;;0.75;100.00;99292.25;6285371;20;3571085;-58
2023/12/07 02:16:43;;;;;;;;;26.00;22.50;;;;;0.79;100.00;99293.88;6286351;20;2836714;-57
2023/12/07 02:20:06;;;;;;;;;30.00;25.67;;;;;0.74;100.00;99296.66;6292978;20;3579838;-58
2023/12/07 02:22:54;;;;;;;;;28.50;25.50;;;;;0.85;100.00;99286.66;6284832;20;2852404;-57
2023/12/07 02:29:10;;;;;;;;;32.50;27.00;;;;;0.74;100.00;99293.13;6282319;20;2845056;-56
2023/12/07 02:31:38;;;;;;;;;33.00;29.00;;;;;0.91;100.00;99297.97;6282432;20;2853404;-56
2023/12/07 02:34:07;;;;;;;;;34.00;27.50;;;;;0.67;100.00;99281.03;6280916;20;2863895;-55
2023/12/07 02:36:39;;;;;;;;;29.00;27.00;;;;;0.66;100.00;99290.72;6281368;20;2851373;-57
2023/12/07 02:39:12;;;;;;;;;26.00;24.67;;;;;0.78;100.00;99310.66;6281660;20;3567067;-55
2023/12/07 02:41:41;;;;;;;;;36.50;25.50;;;;;0.69;100.00;99297.72;6281717;20;2859665;-57
2023/12/07 02:44:09;;;;;;;;;34.50;32.00;;;;;0.84;100.00;99302.53;6280597;20;2500367;-56
2023/12/07 02:46:38;;;;;;;;;37.00;36.00;;;;;0.81;100.00;99306.13;6281066;20;2861720;-55
2023/12/07 02:49:07;;;;;;;;;39.00;31.50;;;;;0.76;100.00;99305.41;6280885;20;2857617;-56
2023/12/07 02:51:37;;;;;;;;;147.33;114.67;;;;;0.78;100.00;99308.00;6280844;20;3714925;-57
2023/12/07 02:54:06;;;;;;;;;42.50;37.00;;;;;0.86;100.00;99311.28;6314859;20;2849329;-55
2023/12/07 02:56:36;;;;;;;;;97.00;76.00;;;;;0.73;100.00;99299.34;6283475;20;2890671;-55
2023/12/07 02:59:04;;;;;;;;;25.50;23.00;;;;;0.66;100.00;99309.22;6311130;20;2500289;-54
2023/12/07 03:01:33;;;;;;;;;41.50;34.50;;;;;0.65;100.00;99304.84;6282155;20;2856633;-55
2023/12/07 03:04:02;;;;;;;;;47.00;35.00;;;;;0.80;100.00;99303.56;6284964;20;2876335;-56
2023/12/07 03:06:32;;;;;;;;;44.67;40.00;;;;;0.64;100.00;99296.03;6277366;20;2868166;-55
2023/12/07 03:09:01;;;;;;;;;30.50;30.50;;;;;0.73;100.00;99299.34;6308888;20;2856518;-57
2023/12/07 03:11:31;;;;;;;;;70.00;48.75;;;;;0.83;100.00;99300.81;6277707;20;3632691;-58
2023/12/07 03:14:00;;;;;;;;;39.00;34.00;;;;;0.95;100.00;99310.16;6311811;20;2853365;-57
2023/12/07 03:16:28;;;;;;;;;35.50;29.00;;;;;0.75;100.00;99305.44;6275514;20;2500403;-54
2023/12/07 03:18:57;;;;;;;;;37.67;29.33;;;;;0.71;100.00;99309.97;6280989;20;2862865;-56
2023/12/07 03:21:26;;;;;;;;;32.00;27.00;;;;;0.65;100.00;99307.47;6312772;20;2500286;-53
2023/12/07 03:23:54;;;;;;;;;30.50;26.00;;;;;0.65;100.00;99313.63;6277822;20;2500304;-56
2023/12/07 03:26:21;;;;;;;;;28.50;26.00;;;;;0.82;100.00;99314.94;6284230;20;2848189;-56
2023/12/07 03:28:50;;;;;;;;;37.00;33.50;;;;;0.95;100.00;99315.44;6283749;20;2848241;-55
2023/12/07 03:31:19;;;;;;;;;38.00;27.50;;;;;0.73;100.00;99315.19;6282709;20;2876335;-58
2023/12/07 03:33:47;;;;;;;;;33.00;22.00;;;;;0.87;100.00;99315.69;6281032;20;2498310;-57
2023/12/07 03:36:16;;;;;;;;;35.00;28.50;;;;;1.12;100.00;99321.13;6280790;20;2500322;-55
2023/12/07 03:38:44;;;;;;;;;27.00;27.00;;;;;0.80;100.00;99311.47;6281115;20;2849294;-55
2023/12/07 03:41:13;;;;;;;;;32.50;30.00;;;;;0.72;100.00;99316.97;6282513;20;2856549;-55
2023/12/07 03:43:41;;;;;;;;;36.00;29.50;;;;;0.74;100.00;99319.56;6284002;20;2861733;-56
2023/12/07 03:46:10;;;;;;;;;22.67;22.00;;;;;0.76;100.00;99323.03;6282907;20;3551320;-56
2023/12/07 03:48:40;;;;;;;;;34.67;26.67;;;;;0.83;100.00;99327.25;6313233;20;3589831;-55
2023/12/07 03:51:12;;;;;;;;;32.50;30.00;;;;;0.78;100.00;99327.38;6282399;20;2852370;-54
2023/12/07 03:53:42;;;;;;;;;40.50;31.00;;;;;0.77;100.00;99335.34;6283636;20;2855483;-55
2023/12/07 03:56:22;;;;;;;;;35.00;29.50;;;;;0.65;100.00;99334.75;6283370;20;2848738;-51
2023/12/07 03:58:50;;;;;;;;;29.00;28.50;;;;;0.61;100.00;99333.13;6278576;20;2500409;-56
2023/12/07 04:01:25;;;;;;;;;37.00;33.00;;;;;0.71;100.00;99338.13;6283129;20;2856538;-55
2023/12/07 04:03:56;;;;;;;;;26.00;22.00;;;;;0.50;100.00;99343.13;6277817;20;2500338;-56
2023/12/07 04:06:25;;;;;;;;;41.00;28.00;;;;;1.06;100.00;99339.81;6283571;20;2865918;-56
2023/12/07 04:08:53;;;;;;;;;33.50;31.00;;;;;0.62;100.00;99339.25;6279214;20;2500256;-55
2023/12/07 04:11:22;;;;;;;;;58.00;43.50;;;;;0.86;100.00;99348.28;6278683;20;2859665;-55
2023/12/07 04:13:51;;;;;;;;;30.50;27.00;;;;;0.56;100.00;99339.44;6277541;20;2498237;-56
2023/12/07 04:16:18;;;;;;;;;42.50;35.50;;;;;0.64;100.00;99346.25;6280629;20;2853494;-55
2023/12/07 04:18:46;;;;;;;;;28.50;22.50;;;;;0.57;100.00;99347.31;6278557;20;2500372;-56
2023/12/07 04:21:15;;;;;;;;;38.00;30.50;;;;;0.61;100.00;99343.69;6278681;20;2500427;-54
2023/12/07 04:23:44;;;;;;;;;49.00;37.67;;;;;0.61;100.00;99345.47;6281910;20;2883569;-53
2023/12/07 04:26:12;;;;;;;;;58.50;45.00;;;;;0.53;100.00;99350.94;6306982;20;2500323;-52
2023/12/07 04:28:41;;;;;;;;;29.67;28.00;;;;;0.73;100.00;99341.63;6280209;20;3591944;-55
2023/12/07 04:31:09;;;;;;;;;33.00;25.00;;;;;0.65;100.00;99349.75;6277628;20;2500327;-56
2023/12/07 04:33:39;;;;;;;;;31.00;26.67;;;;;0.74;100.00;99353.91;6279998;20;3588841;-55
2023/12/07 04:36:08;;;;;;;;;35.67;28.33;;;;;0.88;100.00;99351.78;6283296;20;3591998;-54
2023/12/07 04:38:37;;;;;;;;;87.67;67.67;;;;;1.31;100.00;99355.81;6276335;20;2887050;-52
2023/12/07 04:41:06;;;;;;;;;27.50;26.00;;;;;0.77;100.00;99357.34;6314411;20;2844097;-53
2023/12/07 04:43:35;;;;;;;;;28.33;25.67;;;;;0.73;100.00;99354.81;6281076;20;3571215;-55
2023/12/07 04:46:05;;;;;;;;;42.25;29.00;;;;;0.70;100.00;99352.28;6280966;20;3626368;-56
2023/12/07 04:48:33;;;;;;;;;25.00;22.00;;;;;0.92;100.00;99349.91;6312281;20;2500221;-53
2023/12/07 04:51:02;;;;;;;;;28.67;20.67;;;;;0.52;100.00;99362.41;6282063;20;3581504;-54
2023/12/07 04:53:31;;;;;;;;;31.67;25.33;;;;;0.58;100.00;99354.34;6312245;20;3571538;-54
2023/12/07 04:55:59;;;;;;;;;34.00;25.50;;;;;0.62;100.00;99368.31;6314705;20;2848150;-55
2023/12/07 04:58:27;;;;;;;;;39.50;29.50;;;;;0.51;100.00;99368.59;6278858;20;2500377;-55
2023/12/07 05:00:55;;;;;;;;;25.50;24.00;;;;;0.82;100.00;99366.03;6278589;20;2829501;-53
2023/12/07 05:03:24;;;;;;;;;26.33;25.00;;;;;0.72;100.00;99361.03;6279427;20;3571149;-56
2023/12/07 05:05:52;;;;;;;;;26.50;18.50;;;;;0.67;100.00;99369.06;6283519;20;2827405;-56
2023/12/07 05:08:21;;;;;;;;;33.50;28.00;;;;;0.78;100.00;99367.00;6276408;20;2500279;-56
2023/12/07 05:10:48;;;;;;;;;30.67;21.00;;;;;0.59;100.00;99374.56;6282706;20;1815978;-55
2023/12/07 05:13:16;;;;;;;;;31.00;24.00;;;;;0.78;100.00;99372.28;6274150;20;2500876;-56
2023/12/07 05:15:46;;;;;;;;;43.00;34.50;;;;;0.71;100.00;99367.19;6279342;20;2873289;-54
2023/12/07 05:18:14;;;;;;;;;31.50;25.50;;;;;0.85;100.00;99373.00;6279738;20;2500409;-55
2023/12/07 05:20:43;;;;;;;;;30.00;26.33;;;;;0.54;100.00;99372.94;6279744;20;3583574;-56
2023/12/07 05:23:11;;;;;;;;;31.00;26.50;;;;;0.78;100.00;99376.72;6278862;20;2852390;-55
2023/12/07 05:25:40;;;;;;;;;28.00;25.00;;;;;0.57;100.00;99381.63;6279115;20;3455550;-54
2023/12/07 05:28:09;;;;;;;;;33.33;26.00;;;;;0.79;100.00;99384.59;6311500;20;3579458;-55
2023/12/07 05:30:38;;;;;;;;;43.50;41.50;;;;;0.54;100.00;99389.66;6277677;20;2859717;-57
2023/12/07 05:33:08;;;;;;;;;28.33;26.00;;;;;0.69;100.00;99393.69;6278202;20;3573307;-56
2023/12/07 05:35:36;;;;;;;;;30.50;25.00;;;;;0.96;100.00;99397.34;6276186;20;2500328;-57
2023/12/07 05:38:05;;;;;;;;;46.33;29.00;;;;;0.86;100.00;99411.72;6279016;20;2879418;-57
2023/12/07 05:40:33;;;;;;;;;27.00;25.00;;;;;0.83;100.00;99414.44;6310587;20;2838896;-56
2023/12/07 05:43:03;;;;;;;;;23.67;19.33;;;;;1.17;100.00;99410.91;6280430;20;3549241;-55
2023/12/07 05:45:31;;;;;;;;;15.00;8.00;;;;;1.05;100.00;99407.69;6309153;20;2779632;-57
2023/12/07 05:48:00;;;;;;;;;30.67;26.33;;;;;0.59;100.00;99416.81;6278686;20;3599253;-57
2023/12/07 05:50:28;;;;;;;;;24.50;15.00;;;;;1.29;100.00;99414.06;6282559;20;2828464;-56
2023/12/07 05:52:59;;;;;;;;;28.67;23.00;;;;;0.91;100.00;99419.53;6283756;20;3580546;-55
2023/12/07 05:55:27;;;;;;;;;32.50;29.50;;;;;0.93;100.00;99423.00;6283636;20;2500405;-56
2023/12/07 05:57:56;;;;;;;;;40.00;33.00;;;;;0.74;100.00;99423.50;6287572;20;2731679;-57
2023/12/07 06:00:25;;;;;;;;;35.50;27.50;;;;;0.62;100.00;99429.94;6314999;20;2849238;-58
2023/12/07 06:02:53;;;;;;;;;31.50;28.00;;;;;0.63;100.00;99430.81;6287745;20;2859822;-54
2023/12/07 06:05:21;;;;;;;;;36.50;27.00;;;;;1.04;100.00;99427.09;6283186;20;2498212;-56
2023/12/07 06:07:49;;;;;;;;;36.00;28.00;;;;;0.92;100.00;99437.97;6283768;20;2491956;-55
2023/12/07 06:10:18;;;;;;;;;32.00;28.50;;;;;0.76;100.00;99436.66;6285219;20;2859724;-55
2023/12/07 06:12:48;;;;;;;;;120.00;97.00;;;;;0.73;100.00;99427.03;6284357;20;3714877;-56
2023/12/07 06:15:16;;;;;;;;;41.00;38.00;;;;;0.74;100.00;99438.44;6277906;20;2500409;-52
2023/12/07 06:17:47;;;;;;;;;122.00;99.75;;;;;0.64;100.00;99438.69;6286460;20;4445072;-57
2023/12/07 06:20:17;;;;;;;;;144.00;116.75;;;;;0.56;100.00;99440.66;6313960;20;4483601;-57
2023/12/07 06:22:46;;;;;;;;;62.50;48.50;;;;;0.63;100.00;99442.25;6284184;20;2857618;-56
2023/12/07 06:25:16;;;;;;;;;38.50;31.50;;;;;0.93;100.00;99444.16;6284004;20;2862806;-58
2023/12/07 06:27:45;;;;;;;;;45.50;39.50;;;;;0.59;100.00;99440.59;6283841;20;2873196;-58
2023/12/07 06:30:14;;;;;;;;;82.33;64.00;;;;;0.44;100.00;99462.97;6284152;20;2883583;-55
2023/12/07 06:32:44;;;;;;;;;76.00;55.67;;;;;0.71;100.00;99451.75;6314023;20;2886856;-57
2023/12/07 06:35:14;;;;;;;;;35.00;31.00;;;;;0.46;100.00;99449.72;6315533;20;2849225;-55
2023/12/07 06:37:42;;;;;;;;;26.00;25.00;;;;;0.53;100.00;99467.16;6283098;20;2829490;-56
2023/12/07 06:40:12;;;;;;;;;55.00;41.67;;;;;0.62;100.00;99469.56;6281856;20;2879531;-55
2023/12/07 06:42:41;;;;;;;;;29.00;24.00;;;;;0.67;100.00;99463.31;6315555;20;3571088;-56
2023/12/07 06:45:10;;;;;;;;;56.00;45.00;;;;;0.78;100.00;99461.25;6313598;20;2853413;-56
2023/12/07 06:47:43;;;;;;;;;38.00;27.50;;;;;0.74;100.00;99468.41;6283554;20;2860694;-56
2023/12/07 06:50:12;;;;;;;;;37.50;33.00;;;;;0.78;100.00;99471.84;6284054;20;2853406;-55
2023/12/07 06:52:41;;;;;;;;;31.00;27.50;;;;;0.79;100.00;99471.81;6286902;20;2852409;-56
2023/12/07 06:55:10;;;;;;;;;26.00;23.00;;;;;0.75;100.00;99478.06;6282927;20;2500423;-54
2023/12/07 06:57:39;;;;;;;;;25.33;23.67;;;;;0.56;100.00;99485.59;6282219;20;3580488;-55
2023/12/07 07:00:10;;;;;;;;;42.00;33.00;;;;;0.96;100.00;99484.56;6281466;20;2873262;-55
2023/12/07 07:02:40;;;;;;;;;35.50;27.00;;;;;0.81;100.00;99482.31;6281886;20;2856632;-56
2023/12/07 07:05:11;;;;;;;;;26.33;19.33;;;;;1.27;100.00;99489.06;6280585;20;3559640;-57
2023/12/07 07:07:39;;;;;;;;;29.00;26.00;;;;;0.78;100.00;99483.25;6284313;20;2852485;-54
2023/12/07 07:10:12;;;;;;;;;39.33;27.67;;;;;1.18;100.00;99481.38;6281008;20;3612252;-55
2023/12/07 07:12:41;;;;;;;;;28.67;21.33;;;;;0.99;100.00;99489.78;6281231;20;3598170;-56
2023/12/07 07:15:10;;;;;;;;;25.00;22.33;;;;;0.97;100.00;99486.31;6281874;20;3556516;-54
2023/12/07 07:17:39;;;;;;;;;27.00;27.00;;;;;0.84;100.00;99483.13;6284128;20;3589961;-54
2023/12/07 07:20:09;;;;;;;;;28.00;19.33;;;;;0.74;100.00;99492.19;6282503;20;3565911;-49
2023/12/07 07:22:37;;;;;;;;;29.33;25.33;;;;;1.08;100.00;99486.91;6282965;20;3564893;-50
2023/12/07 07:25:07;;;;;;;;;28.00;26.00;;;;;1.08;100.00;99492.19;6280549;20;3573208;-53
2023/12/07 07:27:36;;;;;;;;;25.33;21.67;;;;;1.50;100.00;99489.31;6284073;20;3560758;-55
2023/12/07 07:30:05;;;;;;;;;21.00;21.00;;;;;1.08;100.00;99483.41;6280838;20;2831535;-53
2023/12/07 07:32:34;;;;;;;;;27.00;17.50;;;;;1.23;100.00;99485.63;6284290;20;2842053;-50
2023/12/07 07:35:02;;;;;;;;;29.00;25.00;;;;;1.07;100.00;99495.72;6285299;20;2837829;-51
2023/12/07 07:37:31;;;;;;;;;27.33;22.33;;;;;1.09;100.00;99491.28;6286070;20;3561725;-50
2023/12/07 07:40:00;;;;;;;;;31.67;23.67;;;;;1.02;100.00;99502.06;6280075;20;3567988;-53
2023/12/07 07:42:29;;;;;;;;;38.00;31.50;;;;;0.97;100.00;99496.88;6315005;20;2853394;-49
2023/12/07 07:44:59;;;;;;;;;46.33;33.00;;;;;1.53;100.00;99494.50;6281965;20;3627477;-49
2023/12/07 07:47:28;;;;;;;;;68.00;54.00;;;;;1.28;100.00;99498.72;6314348;20;2879479;-52
2023/12/07 07:49:58;;;;;;;;;39.50;39.50;;;;;1.34;100.00;99501.19;6281985;20;2858774;-52
2023/12/07 07:52:27;;;;;;;;;43.00;38.00;;;;;1.37;100.00;99497.59;6283321;20;2765965;-54
2023/12/07 07:54:56;;;;;;;;;40.00;39.00;;;;;1.30;100.00;99496.91;6302416;20;2854587;-50
2023/12/07 07:57:25;;;;;;;;;46.00;32.00;;;;;1.57;100.00;99499.72;6279655;20;2878427;-52
2023/12/07 07:59:54;;;;;;;;;28.00;25.00;;;;;1.81;100.00;99503.44;6309107;20;2500241;-49
2023/12/07 08:02:23;;;;;;;;;31.00;25.00;;;;;2.04;100.00;99500.13;6275451;20;2849246;-48
2023/12/07 08:04:51;;;;;;;;;31.00;25.00;;;;;2.18;100.00;99497.91;6278910;20;2501011;-49
2023/12/07 08:07:20;;;;;;;;;33.33;25.67;;;;;2.06;100.00;99504.47;6281019;20;3583708;-47
2023/12/07 08:09:48;;;;;;;;;36.50;28.50;;;;;1.78;100.00;99509.69;6281210;20;2850469;-46
2023/12/07 08:12:17;;;;;;;;;37.50;31.50;;;;;1.91;100.00;99510.19;6280685;20;2859701;-48
2023/12/07 08:14:48;;;;;;;;;64.00;45.33;;;;;1.77;100.00;99504.44;6278532;20;3623197;-46
2023/12/07 08:17:19;;;;;;;;;73.00;58.50;;;;;1.58;100.00;99512.00;6313465;20;2868244;-48
2023/12/07 08:19:49;;;;;;;;;71.67;54.33;;;;;1.24;100.00;99512.97;6279571;20;3640911;-46
2023/12/07 08:22:20;;;;;;;;;269.00;176.25;;;;;1.42;100.00;99523.03;6311710;20;4463815;-48
2023/12/07 08:24:48;;;;;;;;;207.50;148.00;;;;;1.28;100.00;99526.03;6308409;20;1956622;-47
2023/12/07 08:27:34;;;;;;;;;174.75;137.50;;;;;1.48;100.00;99530.81;6280819;20;3705596;-47
2023/12/07 08:30:05;;;;;;;;;217.50;172.00;;;;;1.60;100.00;99523.44;6311935;20;4460674;-46
2023/12/07 08:32:36;;;;;;;;;117.33;93.00;;;;;1.34;100.00;99525.00;6313153;20;3698162;-45
2023/12/07 08:35:08;;;;;;;;;110.25;93.00;;;;;0.93;100.00;99534.88;6274462;20;3696161;-44
2023/12/07 08:37:39;;;;;;;;;134.75;108.25;;;;;1.09;100.00;99530.94;6312132;20;4482622;-46
2023/12/07 08:40:11;;;;;;;;;111.75;92.25;;;;;0.94;100.00;99541.03;6278165;20;4448187;-48
2023/12/07 08:42:47;;;;;;;;;110.33;86.67;;;;;1.33;100.00;99541.78;6313593;20;3687749;-44
2023/12/07 08:45:22;;;;;;;;;170.00;128.75;;;;;1.26;100.00;99540.19;6280933;20;4465893;-46
2023/12/07 08:47:52;;;;;;;;;101.67;72.33;;;;;1.52;100.00;99550.97;6283067;20;3680488;-45
2023/12/07 08:50:23;;;;;;;;;87.33;66.00;;;;;1.42;100.00;99546.84;6277645;20;3635679;-50
2023/12/07 08:52:53;;;;;;;;;75.67;59.33;;;;;1.98;100.00;99547.03;6313952;20;3626411;-49
2023/12/07 08:55:32;;;;;;;;;52.00;41.67;;;;;2.34;100.00;99546.88;6310740;20;3610670;-48
2023/12/07 08:58:04;;;;;;;;;59.00;47.00;;;;;2.18;100.00;99540.28;6312680;20;2858633;-47
2023/12/07 09:00:34;;;;;;;;;83.00;64.00;;;;;2.42;100.00;99544.88;6280470;20;3645048;-46
2023/12/07 09:03:04;;;;;;;;;122.33;102.33;;;;;2.17;100.00;99535.91;6276674;20;3709611;-49
2023/12/07 09:05:32;;;;;;;;;53.50;46.00;;;;;1.98;100.00;99544.41;6278064;20;2496107;-45
2023/12/07 09:08:01;;;;;;;;;64.00;53.00;;;;;1.60;100.00;99534.00;6279539;20;2815920;-47
2023/12/07 09:10:31;;;;;;;;;61.00;44.67;;;;;2.12;100.00;99546.63;6275114;20;3626358;-46
2023/12/07 09:13:00;;;;;;;;;73.50;57.00;;;;;1.30;100.00;99544.53;6314202;20;2862817;-45
2023/12/07 09:15:30;;;;;;;;;53.33;41.00;;;;;2.13;100.00;99540.44;6278437;20;2873274;-47
2023/12/07 09:17:59;;;;;;;;;49.33;43.00;;;;;2.07;100.00;99537.09;6312901;20;2858654;-48
2023/12/07 09:20:29;;;;;;;;;83.33;63.00;;;;;1.39;100.00;99546.03;6311756;20;3640888;-49
2023/12/07 09:22:58;;;;;;;;;46.33;39.00;;;;;2.22;100.00;99552.53;6314701;20;2879551;-49
2023/12/07 09:25:29;;;;;;;;;49.67;41.33;;;;;2.14;100.00;99546.59;6313062;20;2866054;-50
2023/12/07 09:27:59;;;;;;;;;60.00;46.00;;;;;1.49;100.00;99547.53;6315697;20;2857648;-50
2023/12/07 09:30:28;;;;;;;;;74.67;55.67;;;;;1.15;100.00;99550.19;6280983;20;3619091;-51
2023/12/07 09:32:59;;;;;;;;;57.00;41.00;;;;;1.90;100.00;99546.41;6314515;20;2878933;-50
2023/12/07 09:35:28;;;;;;;;;56.00;42.67;;;;;1.69;100.00;99541.72;6313447;20;2859180;-50
2023/12/07 09:37:58;;;;;;;;;74.67;58.00;;;;;1.61;100.00;99543.72;6313525;20;2877490;-49
2023/12/07 09:40:28;;;;;;;;;74.00;54.00;;;;;1.37;100.00;99539.91;6309064;20;3637822;-52
2023/12/07 09:42:58;;;;;;;;;79.67;60.00;;;;;1.10;100.00;99539.72;6312622;20;3639869;-50
2023/12/07 09:45:27;;;;;;;;;37.50;30.00;;;;;2.09;100.00;99543.22;6314619;20;2865918;-48
2023/12/07 09:48:00;;;;;;;;;85.67;63.33;;;;;1.38;100.00;99541.69;6278460;20;3623266;-50
2023/12/07 09:50:30;;;;;;;;;94.33;68.33;;;;;1.35;100.00;99545.28;6309897;20;3654485;-51
2023/12/07 09:52:59;;;;;;;;;103.33;72.00;;;;;1.53;100.00;99547.44;6279673;20;3690906;-52
2023/12/07 09:55:37;;;;;;;;;85.00;66.67;;;;;1.72;100.00;99557.50;6310474;20;3640220;-47
2023/12/07 09:58:08;;;;;;;;;101.67;75.33;;;;;1.54;100.00;99549.16;6311437;20;3675409;-47
2023/12/07 10:00:38;;;;;;;;;79.00;60.00;;;;;1.54;100.00;99546.50;6276372;20;3645208;-47
2023/12/07 10:03:22;;;;;;;;;73.67;54.00;;;;;1.98;100.00;99544.41;6312949;20;2888032;-50
2023/12/07 10:05:59;;;;;;;;;105.00;76.33;;;;;1.67;100.00;99543.53;6313032;20;3678392;-51
2023/12/07 10:08:37;;;;;;;;;104.00;80.67;;;;;1.20;100.00;99543.03;6282563;20;3699241;-49
2023/12/07 10:11:11;;;;;;;;;90.67;67.67;;;;;2.00;100.00;99546.97;6279439;20;3638904;-52
2023/12/07 10:13:41;;;;;;;;;83.67;62.33;;;;;1.08;100.00;99549.50;6311339;20;3641018;-49
2023/12/07 10:16:17;;;;;;;;;86.67;62.67;;;;;1.91;100.00;99548.13;6309112;20;3654416;-48
2023/12/07 10:18:46;;;;;;;;;57.00;44.00;;;;;1.67;100.00;99549.69;6312068;20;2851310;-50
2023/12/07 10:21:15;;;;;;;;;61.00;48.50;;;;;1.79;100.00;99543.19;6289618;20;2500277;-49
2023/12/07 10:23:46;;;;;;;;;92.33;67.67;;;;;1.85;100.00;99548.31;6282108;20;3649247;-51
2023/12/07 10:26:19;;;;;;;;;79.67;61.67;;;;;1.12;100.00;99542.34;6309950;20;2877361;-50
2023/12/07 10:28:54;;;;;;;;;56.50;47.50;;;;;1.93;100.00;99535.72;6311929;20;2857615;-50
2023/12/07 10:31:25;;;;;;;;;83.00;61.67;;;;;1.88;100.00;99542.91;6277620;20;3642973;-51
2023/12/07 10:33:55;;;;;;;;;75.00;60.67;;;;;1.59;100.00;99548.16;6310668;20;2875553;-49
2023/12/07 10:36:25;;;;;;;;;65.00;48.67;;;;;1.71;100.00;99538.13;6314748;20;3623183;-49
2023/12/07 10:38:55;;;;;;;;;82.50;66.00;;;;;1.88;100.00;99552.66;6315859;20;2867021;-48
2023/12/07 10:41:25;;;;;;;;;39.00;33.00;;;;;2.32;100.00;99554.00;6285535;20;2850290;-49
2023/12/07 10:44:01;;;;;;;;;58.00;44.33;;;;;1.77;100.00;99555.59;6287275;20;2865885;-48
2023/12/07 10:46:34;;;;;;;;;51.00;43.50;;;;;1.99;100.00;99555.84;6314908;20;2860737;-49
2023/12/07 10:49:11;;;;;;;;;100.00;75.67;;;;;1.72;100.00;99562.78;6286441;20;3685774;-52
2023/12/07 10:52:01;;;;;;;;;74.67;60.00;;;;;1.83;100.00;99560.72;6283992;20;2880559;-47
2023/12/07 10:55:04;;;;;;;;;76.00;57.67;;;;;1.47;100.00;99560.78;6315041;20;2881680;-49
2023/12/07 10:57:35;;;;;;;;;75.67;57.67;;;;;1.09;100.00;99562.66;6312914;20;2887835;-51
2023/12/07 11:00:08;;;;;;;;;62.00;51.50;;;;;1.54;100.00;99557.09;6313392;20;2861725;-52
2023/12/07 11:02:41;;;;;;;;;82.00;62.50;;;;;1.25;100.00;99557.00;6283206;20;2884682;-50
2023/12/07 11:05:12;;;;;;;;;78.33;58.00;;;;;1.74;100.00;99560.97;6285383;20;3639964;-51
2023/12/07 11:08:09;;;;;;;;;74.00;54.67;;;;;1.60;100.00;99563.13;6315108;20;2879552;-51
2023/12/07 11:11:25;;;;;;;;;188.25;146.25;;;;;1.24;100.00;99565.84;6310144;20;4482548;-49
2023/12/07 11:14:13;;;;;;;;;92.33;69.00;;;;;1.61;100.00;99571.03;6280197;20;3644062;-52
2023/12/07 11:16:46;;;;;;;;;95.33;70.00;;;;;1.65;100.00;99571.81;6312763;20;3657548;-49
2023/12/07 11:19:32;;;;;;;;;104.33;77.00;;;;;1.38;100.00;99566.34;6312748;20;3698206;-52